sensor_id;sensor_type;location;lat;lon;timestamp;P1;durP1;ratioP1;P2;durP2;ratioP2
7707;SDS011;3896;48.758;8.888;2024-03-25T00:01:13;5.00;;;2.33;;
7707;SDS011;3896;48.758;8.888;2024-03-25T00:03:39;3.33;;;1.57;;
7707;SDS011;3896;48.758;8.888;2024-03-25T00:06:04;2.00;;;1.67;;
7707;SDS011;3896;48.758;8.888;2024-03-25T00:08:31;1.93;;;1.77;;
7707;SDS011;3896;48.758;8.888;2024-03-25T00:10:57;2.37;;;2.10;;
7707;SDS011;3896;48.758;8.888;2024-03-25T00:13:22;2.23;;;1.57;;
7707;SDS011;3896;48.758;8.888;2024-03-25T00:15:48;3.00;;;1.97;;
7707;SDS011;3896;48.758;8.888;2024-03-25T00:18:13;2.73;;;1.80;;
7707;SDS011;3896;48.758;8.888;2024-03-25T00:20:39;2.27;;;1.60;;
7707;SDS011;3896;48.758;8.888;2024-03-25T00:23:04;2.37;;;1.73;;
7707;SDS011;3896;48.758;8.888;2024-03-25T00:25:30;4.67;;;1.60;;
7707;SDS011;3896;48.758;8.888;2024-03-25T00:27:56;4.23;;;2.00;;
7707;SDS011;3896;48.758;8.888;2024-03-25T00:30:22;3.37;;;1.70;;
7707;SDS011;3896;48.758;8.888;2024-03-25T00:32:49;4.03;;;1.67;;
7707;SDS011;3896;48.758;8.888;2024-03-25T00:35:14;3.07;;;1.87;;
7707;SDS011;3896;48.758;8.888;2024-03-25T00:37:40;1.93;;;1.47;;
7707;SDS011;3896;48.758;8.888;2024-03-25T00:40:06;1.80;;;1.70;;
7707;SDS011;3896;48.758;8.888;2024-03-25T00:42:32;3.13;;;2.20;;
7707;SDS011;3896;48.758;8.888;2024-03-25T00:44:58;2.33;;;1.83;;
7707;SDS011;3896;48.758;8.888;2024-03-25T00:47:24;4.60;;;2.00;;
7707;SDS011;3896;48.758;8.888;2024-03-25T00:49:50;2.57;;;1.77;;
7707;SDS011;3896;48.758;8.888;2024-03-25T00:52:16;3.80;;;1.70;;
7707;SDS011;3896;48.758;8.888;2024-03-25T00:54:41;3.87;;;1.93;;
7707;SDS011;3896;48.758;8.888;2024-03-25T00:57:07;2.10;;;1.90;;
7707;SDS011;3896;48.758;8.888;2024-03-25T00:59:33;2.43;;;1.87;;
7707;SDS011;3896;48.758;8.888;2024-03-25T01:02:00;3.67;;;1.83;;
7707;SDS011;3896;48.758;8.888;2024-03-25T01:04:25;1.80;;;1.70;;
7707;SDS011;3896;48.758;8.888;2024-03-25T01:06:51;4.43;;;1.90;;
7707;SDS011;3896;48.758;8.888;2024-03-25T01:09:16;3.13;;;1.80;;
7707;SDS011;3896;48.758;8.888;2024-03-25T01:11:42;3.30;;;2.20;;
7707;SDS011;3896;48.758;8.888;2024-03-25T01:14:07;2.77;;;2.00;;
7707;SDS011;3896;48.758;8.888;2024-03-25T01:16:33;2.53;;;1.73;;
7707;SDS011;3896;48.758;8.888;2024-03-25T01:18:58;3.63;;;1.87;;
7707;SDS011;3896;48.758;8.888;2024-03-25T01:21:24;4.83;;;1.50;;
7707;SDS011;3896;48.758;8.888;2024-03-25T01:23:50;4.77;;;1.80;;
7707;SDS011;3896;48.758;8.888;2024-03-25T01:26:15;3.60;;;1.97;;
7707;SDS011;3896;48.758;8.888;2024-03-25T01:28:41;5.20;;;2.20;;
7707;SDS011;3896;48.758;8.888;2024-03-25T01:31:07;1.90;;;1.80;;
7707;SDS011;3896;48.758;8.888;2024-03-25T01:33:34;7.27;;;2.47;;
7707;SDS011;3896;48.758;8.888;2024-03-25T01:36:00;4.13;;;2.63;;
7707;SDS011;3896;48.758;8.888;2024-03-25T01:38:25;1.70;;;1.60;;
7707;SDS011;3896;48.758;8.888;2024-03-25T01:40:51;3.70;;;2.23;;
7707;SDS011;3896;48.758;8.888;2024-03-25T01:43:16;5.30;;;2.20;;
7707;SDS011;3896;48.758;8.888;2024-03-25T01:45:42;5.40;;;1.80;;
7707;SDS011;3896;48.758;8.888;2024-03-25T01:48:08;4.03;;;2.27;;
7707;SDS011;3896;48.758;8.888;2024-03-25T01:50:36;3.57;;;2.13;;
7707;SDS011;3896;48.758;8.888;2024-03-25T01:53:05;3.13;;;2.80;;
7707;SDS011;3896;48.758;8.888;2024-03-25T01:55:32;2.23;;;1.67;;
7707;SDS011;3896;48.758;8.888;2024-03-25T01:57:59;4.23;;;1.80;;
7707;SDS011;3896;48.758;8.888;2024-03-25T02:00:25;4.30;;;2.30;;
7707;SDS011;3896;48.758;8.888;2024-03-25T02:02:52;2.90;;;1.70;;
7707;SDS011;3896;48.758;8.888;2024-03-25T02:05:18;2.83;;;1.87;;
7707;SDS011;3896;48.758;8.888;2024-03-25T02:07:45;4.60;;;2.33;;
7707;SDS011;3896;48.758;8.888;2024-03-25T02:10:11;3.97;;;2.40;;
7707;SDS011;3896;48.758;8.888;2024-03-25T02:12:40;1.90;;;1.80;;
7707;SDS011;3896;48.758;8.888;2024-03-25T02:15:10;4.83;;;2.40;;
7707;SDS011;3896;48.758;8.888;2024-03-25T02:17:36;3.83;;;2.20;;
7707;SDS011;3896;48.758;8.888;2024-03-25T02:20:02;2.07;;;1.87;;
7707;SDS011;3896;48.758;8.888;2024-03-25T02:22:30;3.73;;;2.13;;
7707;SDS011;3896;48.758;8.888;2024-03-25T02:24:56;3.83;;;2.40;;
7707;SDS011;3896;48.758;8.888;2024-03-25T02:27:23;5.03;;;2.30;;
7707;SDS011;3896;48.758;8.888;2024-03-25T02:30:04;2.40;;;2.17;;
7707;SDS011;3896;48.758;8.888;2024-03-25T02:32:32;3.83;;;2.10;;
7707;SDS011;3896;48.758;8.888;2024-03-25T02:34:58;5.97;;;2.13;;
7707;SDS011;3896;48.758;8.888;2024-03-25T02:37:25;4.53;;;1.83;;
7707;SDS011;3896;48.758;8.888;2024-03-25T02:39:52;3.87;;;2.17;;
7707;SDS011;3896;48.758;8.888;2024-03-25T02:42:20;7.57;;;2.13;;
7707;SDS011;3896;48.758;8.888;2024-03-25T02:57:43;2.40;;;1.80;;
7707;SDS011;3896;48.758;8.888;2024-03-25T03:00:08;5.23;;;2.53;;
7707;SDS011;3896;48.758;8.888;2024-03-25T03:02:35;4.07;;;2.43;;
7707;SDS011;3896;48.758;8.888;2024-03-25T03:05:00;5.50;;;2.23;;
7707;SDS011;3896;48.758;8.888;2024-03-25T03:07:27;4.53;;;2.73;;
7707;SDS011;3896;48.758;8.888;2024-03-25T03:09:53;2.97;;;2.10;;
7707;SDS011;3896;48.758;8.888;2024-03-25T03:12:18;5.77;;;2.13;;
7707;SDS011;3896;48.758;8.888;2024-03-25T03:14:44;6.30;;;2.60;;
7707;SDS011;3896;48.758;8.888;2024-03-25T03:17:09;4.20;;;1.97;;
7707;SDS011;3896;48.758;8.888;2024-03-25T03:19:35;3.47;;;2.17;;
7707;SDS011;3896;48.758;8.888;2024-03-25T03:22:00;4.00;;;1.93;;
7707;SDS011;3896;48.758;8.888;2024-03-25T03:24:26;4.90;;;2.43;;
7707;SDS011;3896;48.758;8.888;2024-03-25T03:26:51;4.17;;;2.93;;
7707;SDS011;3896;48.758;8.888;2024-03-25T03:29:17;3.97;;;1.90;;
7707;SDS011;3896;48.758;8.888;2024-03-25T03:31:43;5.10;;;2.17;;
7707;SDS011;3896;48.758;8.888;2024-03-25T03:34:08;2.00;;;1.90;;
7707;SDS011;3896;48.758;8.888;2024-03-25T03:36:34;3.03;;;2.03;;
7707;SDS011;3896;48.758;8.888;2024-03-25T03:38:59;5.13;;;2.17;;
7707;SDS011;3896;48.758;8.888;2024-03-25T03:41:25;4.83;;;2.07;;
7707;SDS011;3896;48.758;8.888;2024-03-25T03:43:50;4.33;;;2.50;;
7707;SDS011;3896;48.758;8.888;2024-03-25T03:46:16;4.73;;;2.43;;
7707;SDS011;3896;48.758;8.888;2024-03-25T03:48:41;6.27;;;2.40;;
7707;SDS011;3896;48.758;8.888;2024-03-25T03:51:08;9.03;;;2.60;;
7707;SDS011;3896;48.758;8.888;2024-03-25T03:53:34;3.77;;;2.20;;
7707;SDS011;3896;48.758;8.888;2024-03-25T03:56:01;3.13;;;2.50;;
7707;SDS011;3896;48.758;8.888;2024-03-25T03:58:29;4.07;;;2.20;;
7707;SDS011;3896;48.758;8.888;2024-03-25T04:00:55;3.50;;;1.80;;
7707;SDS011;3896;48.758;8.888;2024-03-25T04:03:20;3.17;;;2.17;;
7707;SDS011;3896;48.758;8.888;2024-03-25T04:05:46;4.67;;;2.77;;
7707;SDS011;3896;48.758;8.888;2024-03-25T04:08:12;4.17;;;1.90;;
7707;SDS011;3896;48.758;8.888;2024-03-25T04:10:38;4.57;;;2.13;;
7707;SDS011;3896;48.758;8.888;2024-03-25T04:13:05;2.40;;;1.93;;
7707;SDS011;3896;48.758;8.888;2024-03-25T04:15:37;5.03;;;2.20;;
7707;SDS011;3896;48.758;8.888;2024-03-25T04:18:04;2.00;;;1.80;;
7707;SDS011;3896;48.758;8.888;2024-03-25T04:20:37;3.70;;;2.23;;
7707;SDS011;3896;48.758;8.888;2024-03-25T04:23:03;3.23;;;2.03;;
7707;SDS011;3896;48.758;8.888;2024-03-25T04:25:32;5.73;;;2.40;;
7707;SDS011;3896;48.758;8.888;2024-03-25T04:27:58;2.87;;;1.97;;
7707;SDS011;3896;48.758;8.888;2024-03-25T04:30:24;2.80;;;2.20;;
7707;SDS011;3896;48.758;8.888;2024-03-25T04:32:50;3.73;;;1.87;;
7707;SDS011;3896;48.758;8.888;2024-03-25T04:35:15;5.57;;;2.37;;
7707;SDS011;3896;48.758;8.888;2024-03-25T04:37:41;2.83;;;2.37;;
7707;SDS011;3896;48.758;8.888;2024-03-25T04:40:06;2.97;;;2.30;;
7707;SDS011;3896;48.758;8.888;2024-03-25T04:42:33;2.87;;;2.00;;
7707;SDS011;3896;48.758;8.888;2024-03-25T04:44:58;2.23;;;2.03;;
7707;SDS011;3896;48.758;8.888;2024-03-25T04:47:24;4.57;;;2.33;;
7707;SDS011;3896;48.758;8.888;2024-03-25T04:49:49;2.40;;;2.17;;
7707;SDS011;3896;48.758;8.888;2024-03-25T04:52:15;4.50;;;2.23;;
7707;SDS011;3896;48.758;8.888;2024-03-25T04:54:48;4.70;;;2.33;;
7707;SDS011;3896;48.758;8.888;2024-03-25T04:57:14;3.30;;;2.17;;
7707;SDS011;3896;48.758;8.888;2024-03-25T04:59:39;4.13;;;2.33;;
7707;SDS011;3896;48.758;8.888;2024-03-25T05:02:05;2.27;;;2.03;;
7707;SDS011;3896;48.758;8.888;2024-03-25T05:04:30;2.60;;;2.03;;
7707;SDS011;3896;48.758;8.888;2024-03-25T05:06:56;7.60;;;2.40;;
7707;SDS011;3896;48.758;8.888;2024-03-25T05:09:21;2.03;;;1.90;;
7707;SDS011;3896;48.758;8.888;2024-03-25T05:11:47;5.60;;;2.03;;
7707;SDS011;3896;48.758;8.888;2024-03-25T05:14:13;3.43;;;2.27;;
7707;SDS011;3896;48.758;8.888;2024-03-25T05:16:38;3.70;;;2.33;;
7707;SDS011;3896;48.758;8.888;2024-03-25T05:19:04;2.20;;;2.00;;
7707;SDS011;3896;48.758;8.888;2024-03-25T05:21:32;4.40;;;2.30;;
7707;SDS011;3896;48.758;8.888;2024-03-25T05:23:58;9.07;;;2.30;;
7707;SDS011;3896;48.758;8.888;2024-03-25T05:26:24;2.80;;;2.03;;
7707;SDS011;3896;48.758;8.888;2024-03-25T05:28:53;2.40;;;2.13;;
7707;SDS011;3896;48.758;8.888;2024-03-25T05:31:20;3.80;;;2.23;;
7707;SDS011;3896;48.758;8.888;2024-03-25T05:33:45;2.17;;;1.93;;
7707;SDS011;3896;48.758;8.888;2024-03-25T05:36:11;3.43;;;2.37;;
7707;SDS011;3896;48.758;8.888;2024-03-25T05:38:36;4.03;;;2.60;;
7707;SDS011;3896;48.758;8.888;2024-03-25T05:41:02;4.37;;;2.23;;
7707;SDS011;3896;48.758;8.888;2024-03-25T05:43:27;3.97;;;2.23;;
7707;SDS011;3896;48.758;8.888;2024-03-25T05:45:53;6.83;;;2.83;;
7707;SDS011;3896;48.758;8.888;2024-03-25T05:48:22;7.23;;;2.67;;
7707;SDS011;3896;48.758;8.888;2024-03-25T05:51:05;2.13;;;1.93;;
7707;SDS011;3896;48.758;8.888;2024-03-25T05:53:32;3.87;;;2.80;;
7707;SDS011;3896;48.758;8.888;2024-03-25T05:55:58;3.73;;;2.43;;
7707;SDS011;3896;48.758;8.888;2024-03-25T05:58:27;3.90;;;2.30;;
7707;SDS011;3896;48.758;8.888;2024-03-25T06:00:53;2.63;;;2.40;;
7707;SDS011;3896;48.758;8.888;2024-03-25T06:03:18;5.20;;;2.20;;
7707;SDS011;3896;48.758;8.888;2024-03-25T06:05:44;7.23;;;2.83;;
7707;SDS011;3896;48.758;8.888;2024-03-25T06:08:10;4.67;;;2.47;;
7707;SDS011;3896;48.758;8.888;2024-03-25T06:10:51;4.27;;;3.10;;
7707;SDS011;3896;48.758;8.888;2024-03-25T06:13:17;4.10;;;2.27;;
7707;SDS011;3896;48.758;8.888;2024-03-25T06:15:43;3.93;;;2.20;;
7707;SDS011;3896;48.758;8.888;2024-03-25T06:18:09;2.73;;;2.10;;
7707;SDS011;3896;48.758;8.888;2024-03-25T06:20:34;4.00;;;2.30;;
7707;SDS011;3896;48.758;8.888;2024-03-25T06:23:01;5.50;;;2.20;;
7707;SDS011;3896;48.758;8.888;2024-03-25T06:25:27;6.00;;;2.23;;
7707;SDS011;3896;48.758;8.888;2024-03-25T06:27:53;5.00;;;2.20;;
7707;SDS011;3896;48.758;8.888;2024-03-25T06:30:19;4.40;;;3.10;;
7707;SDS011;3896;48.758;8.888;2024-03-25T06:33:03;4.30;;;2.67;;
7707;SDS011;3896;48.758;8.888;2024-03-25T06:35:47;3.53;;;2.23;;
7707;SDS011;3896;48.758;8.888;2024-03-25T06:38:12;2.97;;;2.60;;
7707;SDS011;3896;48.758;8.888;2024-03-25T06:40:38;6.47;;;2.00;;
7707;SDS011;3896;48.758;8.888;2024-03-25T06:43:04;6.13;;;2.50;;
7707;SDS011;3896;48.758;8.888;2024-03-25T06:45:30;3.73;;;3.30;;
7707;SDS011;3896;48.758;8.888;2024-03-25T06:47:56;3.73;;;2.67;;
7707;SDS011;3896;48.758;8.888;2024-03-25T06:50:22;3.50;;;2.57;;
7707;SDS011;3896;48.758;8.888;2024-03-25T06:52:48;8.87;;;2.90;;
7707;SDS011;3896;48.758;8.888;2024-03-25T06:55:15;3.40;;;2.10;;
7707;SDS011;3896;48.758;8.888;2024-03-25T06:57:41;6.27;;;2.47;;
7707;SDS011;3896;48.758;8.888;2024-03-25T07:00:06;2.37;;;2.17;;
7707;SDS011;3896;48.758;8.888;2024-03-25T07:02:38;5.40;;;2.77;;
7707;SDS011;3896;48.758;8.888;2024-03-25T07:05:04;4.37;;;2.40;;
7707;SDS011;3896;48.758;8.888;2024-03-25T07:07:30;3.53;;;2.50;;
7707;SDS011;3896;48.758;8.888;2024-03-25T07:09:56;3.80;;;2.30;;
7707;SDS011;3896;48.758;8.888;2024-03-25T07:12:22;5.70;;;2.70;;
7707;SDS011;3896;48.758;8.888;2024-03-25T07:14:47;4.37;;;2.43;;
7707;SDS011;3896;48.758;8.888;2024-03-25T07:17:13;3.67;;;2.50;;
7707;SDS011;3896;48.758;8.888;2024-03-25T07:19:38;5.80;;;2.30;;
7707;SDS011;3896;48.758;8.888;2024-03-25T07:22:03;3.67;;;2.43;;
7707;SDS011;3896;48.758;8.888;2024-03-25T07:24:29;5.30;;;2.43;;
7707;SDS011;3896;48.758;8.888;2024-03-25T07:26:54;4.20;;;2.77;;
7707;SDS011;3896;48.758;8.888;2024-03-25T07:29:20;2.57;;;2.30;;
7707;SDS011;3896;48.758;8.888;2024-03-25T07:31:46;4.43;;;2.57;;
7707;SDS011;3896;48.758;8.888;2024-03-25T07:34:11;4.17;;;2.07;;
7707;SDS011;3896;48.758;8.888;2024-03-25T07:36:37;3.00;;;2.43;;
7707;SDS011;3896;48.758;8.888;2024-03-25T07:39:03;5.27;;;2.20;;
7707;SDS011;3896;48.758;8.888;2024-03-25T07:41:31;2.73;;;2.23;;
7707;SDS011;3896;48.758;8.888;2024-03-25T07:43:56;3.00;;;2.37;;
7707;SDS011;3896;48.758;8.888;2024-03-25T07:46:22;3.60;;;1.80;;
7707;SDS011;3896;48.758;8.888;2024-03-25T07:48:47;2.43;;;1.53;;
7707;SDS011;3896;48.758;8.888;2024-03-25T07:51:13;4.07;;;2.67;;
7707;SDS011;3896;48.758;8.888;2024-03-25T07:53:38;2.43;;;2.07;;
7707;SDS011;3896;48.758;8.888;2024-03-25T07:56:04;2.93;;;2.00;;
7707;SDS011;3896;48.758;8.888;2024-03-25T07:58:30;4.30;;;1.50;;
7707;SDS011;3896;48.758;8.888;2024-03-25T08:00:55;3.80;;;2.10;;
7707;SDS011;3896;48.758;8.888;2024-03-25T08:03:21;1.93;;;1.73;;
7707;SDS011;3896;48.758;8.888;2024-03-25T08:05:48;3.07;;;1.93;;
7707;SDS011;3896;48.758;8.888;2024-03-25T08:08:14;6.37;;;2.03;;
7707;SDS011;3896;48.758;8.888;2024-03-25T08:10:39;2.77;;;1.80;;
7707;SDS011;3896;48.758;8.888;2024-03-25T08:13:05;3.80;;;2.33;;
7707;SDS011;3896;48.758;8.888;2024-03-25T08:15:30;2.73;;;2.17;;
7707;SDS011;3896;48.758;8.888;2024-03-25T08:17:56;4.80;;;1.93;;
7707;SDS011;3896;48.758;8.888;2024-03-25T08:20:21;2.33;;;1.50;;
7707;SDS011;3896;48.758;8.888;2024-03-25T08:22:48;3.43;;;1.50;;
7707;SDS011;3896;48.758;8.888;2024-03-25T08:25:14;5.93;;;1.87;;
7707;SDS011;3896;48.758;8.888;2024-03-25T08:27:39;1.30;;;1.20;;
7707;SDS011;3896;48.758;8.888;2024-03-25T08:30:05;3.10;;;2.20;;
7707;SDS011;3896;48.758;8.888;2024-03-25T08:32:31;2.83;;;1.53;;
7707;SDS011;3896;48.758;8.888;2024-03-25T08:34:57;5.33;;;1.43;;
7707;SDS011;3896;48.758;8.888;2024-03-25T08:37:23;1.60;;;1.27;;
7707;SDS011;3896;48.758;8.888;2024-03-25T08:39:49;2.17;;;2.00;;
7707;SDS011;3896;48.758;8.888;2024-03-25T08:42:14;3.97;;;1.73;;
7707;SDS011;3896;48.758;8.888;2024-03-25T08:44:40;4.20;;;1.47;;
7707;SDS011;3896;48.758;8.888;2024-03-25T08:47:05;3.03;;;1.60;;
7707;SDS011;3896;48.758;8.888;2024-03-25T08:49:31;2.37;;;1.70;;
7707;SDS011;3896;48.758;8.888;2024-03-25T08:51:56;4.77;;;1.53;;
7707;SDS011;3896;48.758;8.888;2024-03-25T08:54:22;2.13;;;1.33;;
7707;SDS011;3896;48.758;8.888;2024-03-25T08:56:47;2.10;;;1.40;;
7707;SDS011;3896;48.758;8.888;2024-03-25T08:59:13;1.00;;;1.00;;
7707;SDS011;3896;48.758;8.888;2024-03-25T09:01:39;2.90;;;1.40;;
7707;SDS011;3896;48.758;8.888;2024-03-25T09:04:04;4.20;;;1.77;;
7707;SDS011;3896;48.758;8.888;2024-03-25T09:06:30;1.37;;;1.27;;
7707;SDS011;3896;48.758;8.888;2024-03-25T09:08:56;1.43;;;1.33;;
7707;SDS011;3896;48.758;8.888;2024-03-25T09:11:40;2.07;;;1.57;;
7707;SDS011;3896;48.758;8.888;2024-03-25T09:14:06;1.60;;;1.13;;
7707;SDS011;3896;48.758;8.888;2024-03-25T09:16:31;2.17;;;1.10;;
7707;SDS011;3896;48.758;8.888;2024-03-25T09:18:57;2.33;;;1.33;;
7707;SDS011;3896;48.758;8.888;2024-03-25T09:21:23;3.10;;;1.47;;
7707;SDS011;3896;48.758;8.888;2024-03-25T09:23:49;1.20;;;0.90;;
7707;SDS011;3896;48.758;8.888;2024-03-25T09:26:15;2.70;;;0.93;;
7707;SDS011;3896;48.758;8.888;2024-03-25T09:28:40;1.00;;;0.90;;
7707;SDS011;3896;48.758;8.888;2024-03-25T09:31:06;2.40;;;1.27;;
7707;SDS011;3896;48.758;8.888;2024-03-25T09:33:32;2.73;;;1.30;;
7707;SDS011;3896;48.758;8.888;2024-03-25T09:35:57;1.23;;;1.10;;
7707;SDS011;3896;48.758;8.888;2024-03-25T09:38:23;2.83;;;1.27;;
7707;SDS011;3896;48.758;8.888;2024-03-25T09:40:50;2.23;;;1.23;;
7707;SDS011;3896;48.758;8.888;2024-03-25T09:43:23;1.30;;;1.20;;
7707;SDS011;3896;48.758;8.888;2024-03-25T09:45:52;1.20;;;1.10;;
7707;SDS011;3896;48.758;8.888;2024-03-25T09:48:20;1.93;;;1.47;;
7707;SDS011;3896;48.758;8.888;2024-03-25T09:50:46;1.60;;;1.40;;
7707;SDS011;3896;48.758;8.888;2024-03-25T09:53:14;1.93;;;1.00;;
7707;SDS011;3896;48.758;8.888;2024-03-25T09:55:39;1.00;;;1.00;;
7707;SDS011;3896;48.758;8.888;2024-03-25T09:58:05;1.23;;;1.07;;
7707;SDS011;3896;48.758;8.888;2024-03-25T10:00:31;2.83;;;1.23;;
7707;SDS011;3896;48.758;8.888;2024-03-25T10:02:56;1.17;;;1.00;;
7707;SDS011;3896;48.758;8.888;2024-03-25T10:05:22;1.43;;;1.20;;
7707;SDS011;3896;48.758;8.888;2024-03-25T10:07:47;2.53;;;1.50;;
7707;SDS011;3896;48.758;8.888;2024-03-25T10:10:13;1.57;;;1.10;;
7707;SDS011;3896;48.758;8.888;2024-03-25T10:12:43;2.10;;;1.90;;
7707;SDS011;3896;48.758;8.888;2024-03-25T10:15:09;2.77;;;1.10;;
7707;SDS011;3896;48.758;8.888;2024-03-25T10:17:40;3.53;;;1.57;;
7707;SDS011;3896;48.758;8.888;2024-03-25T10:20:06;1.60;;;1.50;;
7707;SDS011;3896;48.758;8.888;2024-03-25T10:22:40;1.10;;;1.00;;
7707;SDS011;3896;48.758;8.888;2024-03-25T10:25:22;1.23;;;1.07;;
7707;SDS011;3896;48.758;8.888;2024-03-25T10:27:57;2.60;;;1.23;;
7707;SDS011;3896;48.758;8.888;2024-03-25T10:30:24;3.50;;;1.97;;
7707;SDS011;3896;48.758;8.888;2024-03-25T10:33:03;3.60;;;1.30;;
7707;SDS011;3896;48.758;8.888;2024-03-25T10:35:30;1.43;;;1.33;;
7707;SDS011;3896;48.758;8.888;2024-03-25T10:38:06;1.93;;;1.50;;
7707;SDS011;3896;48.758;8.888;2024-03-25T10:40:36;2.73;;;1.30;;
7707;SDS011;3896;48.758;8.888;2024-03-25T10:43:04;2.03;;;1.80;;
7707;SDS011;3896;48.758;8.888;2024-03-25T10:45:33;5.30;;;1.40;;
7707;SDS011;3896;48.758;8.888;2024-03-25T10:50:38;1.30;;;1.20;;
7707;SDS011;3896;48.758;8.888;2024-03-25T10:53:05;2.30;;;1.57;;
7707;SDS011;3896;48.758;8.888;2024-03-25T10:55:33;1.37;;;1.23;;
7707;SDS011;3896;48.758;8.888;2024-03-25T10:58:01;1.27;;;1.20;;
7707;SDS011;3896;48.758;8.888;2024-03-25T11:00:28;1.83;;;1.13;;
7707;SDS011;3896;48.758;8.888;2024-03-25T11:02:54;1.90;;;1.30;;
7707;SDS011;3896;48.758;8.888;2024-03-25T11:05:20;5.23;;;1.30;;
7707;SDS011;3896;48.758;8.888;2024-03-25T11:07:46;2.00;;;1.30;;
7707;SDS011;3896;48.758;8.888;2024-03-25T11:10:12;1.63;;;1.33;;
7707;SDS011;3896;48.758;8.888;2024-03-25T11:12:38;2.00;;;1.20;;
7707;SDS011;3896;48.758;8.888;2024-03-25T11:15:07;1.50;;;1.40;;
7707;SDS011;3896;48.758;8.888;2024-03-25T11:17:33;1.83;;;1.53;;
7707;SDS011;3896;48.758;8.888;2024-03-25T11:20:15;2.30;;;1.20;;
7707;SDS011;3896;48.758;8.888;2024-03-25T11:22:51;2.03;;;1.20;;
7707;SDS011;3896;48.758;8.888;2024-03-25T11:25:18;5.03;;;1.37;;
7707;SDS011;3896;48.758;8.888;2024-03-25T11:27:45;2.30;;;1.27;;
7707;SDS011;3896;48.758;8.888;2024-03-25T11:30:15;2.83;;;1.27;;
7707;SDS011;3896;48.758;8.888;2024-03-25T11:32:45;3.37;;;1.27;;
7707;SDS011;3896;48.758;8.888;2024-03-25T11:35:19;2.43;;;1.50;;
7707;SDS011;3896;48.758;8.888;2024-03-25T11:37:45;1.83;;;1.20;;
7707;SDS011;3896;48.758;8.888;2024-03-25T11:40:11;1.20;;;1.20;;
7707;SDS011;3896;48.758;8.888;2024-03-25T11:42:39;1.97;;;1.30;;
7707;SDS011;3896;48.758;8.888;2024-03-25T11:45:06;2.23;;;1.43;;
7707;SDS011;3896;48.758;8.888;2024-03-25T11:47:32;1.20;;;1.10;;
7707;SDS011;3896;48.758;8.888;2024-03-25T11:49:58;1.67;;;1.43;;
7707;SDS011;3896;48.758;8.888;2024-03-25T11:52:29;1.60;;;1.50;;
7707;SDS011;3896;48.758;8.888;2024-03-25T11:54:55;1.37;;;1.07;;
7707;SDS011;3896;48.758;8.888;2024-03-25T11:57:21;1.33;;;1.23;;
7707;SDS011;3896;48.758;8.888;2024-03-25T11:59:47;1.40;;;1.30;;
7707;SDS011;3896;48.758;8.888;2024-03-25T12:02:14;2.10;;;1.57;;
7707;SDS011;3896;48.758;8.888;2024-03-25T12:04:44;2.13;;;1.43;;
7707;SDS011;3896;48.758;8.888;2024-03-25T12:07:13;3.37;;;1.50;;
7707;SDS011;3896;48.758;8.888;2024-03-25T12:09:41;1.97;;;1.60;;
7707;SDS011;3896;48.758;8.888;2024-03-25T12:12:26;2.10;;;1.20;;
7707;SDS011;3896;48.758;8.888;2024-03-25T12:14:52;3.67;;;1.70;;
7707;SDS011;3896;48.758;8.888;2024-03-25T12:17:18;4.33;;;1.60;;
7707;SDS011;3896;48.758;8.888;2024-03-25T12:19:57;2.33;;;1.47;;
7707;SDS011;3896;48.758;8.888;2024-03-25T12:22:33;1.33;;;1.23;;
7707;SDS011;3896;48.758;8.888;2024-03-25T12:25:00;1.60;;;1.50;;
7707;SDS011;3896;48.758;8.888;2024-03-25T12:27:28;1.90;;;1.27;;
7707;SDS011;3896;48.758;8.888;2024-03-25T12:29:57;2.07;;;1.20;;
7707;SDS011;3896;48.758;8.888;2024-03-25T12:32:37;1.83;;;1.40;;
7707;SDS011;3896;48.758;8.888;2024-03-25T12:35:11;4.63;;;2.07;;
7707;SDS011;3896;48.758;8.888;2024-03-25T12:37:41;4.97;;;2.00;;
7707;SDS011;3896;48.758;8.888;2024-03-25T12:40:12;2.27;;;1.57;;
7707;SDS011;3896;48.758;8.888;2024-03-25T12:42:51;1.40;;;1.10;;
7707;SDS011;3896;48.758;8.888;2024-03-25T12:45:18;1.30;;;1.20;;
7707;SDS011;3896;48.758;8.888;2024-03-25T12:47:45;1.30;;;1.20;;
7707;SDS011;3896;48.758;8.888;2024-03-25T12:50:10;2.20;;;1.43;;
7707;SDS011;3896;48.758;8.888;2024-03-25T12:52:36;2.03;;;1.40;;
7707;SDS011;3896;48.758;8.888;2024-03-25T12:55:01;3.73;;;1.80;;
7707;SDS011;3896;48.758;8.888;2024-03-25T12:57:28;1.33;;;0.93;;
7707;SDS011;3896;48.758;8.888;2024-03-25T12:59:54;2.67;;;1.43;;
7707;SDS011;3896;48.758;8.888;2024-03-25T13:02:19;2.23;;;1.37;;
7707;SDS011;3896;48.758;8.888;2024-03-25T13:04:45;2.33;;;1.30;;
7707;SDS011;3896;48.758;8.888;2024-03-25T13:07:10;1.87;;;1.50;;
7707;SDS011;3896;48.758;8.888;2024-03-25T13:09:36;1.83;;;1.50;;
7707;SDS011;3896;48.758;8.888;2024-03-25T13:12:02;1.37;;;1.27;;
7707;SDS011;3896;48.758;8.888;2024-03-25T13:14:28;2.80;;;1.73;;
7707;SDS011;3896;48.758;8.888;2024-03-25T13:16:54;3.20;;;1.30;;
7707;SDS011;3896;48.758;8.888;2024-03-25T13:19:20;2.67;;;1.83;;
7707;SDS011;3896;48.758;8.888;2024-03-25T13:21:46;1.57;;;1.47;;
7707;SDS011;3896;48.758;8.888;2024-03-25T13:24:12;1.33;;;1.13;;
7707;SDS011;3896;48.758;8.888;2024-03-25T13:26:38;3.80;;;1.63;;
7707;SDS011;3896;48.758;8.888;2024-03-25T13:29:04;1.87;;;1.30;;
7707;SDS011;3896;48.758;8.888;2024-03-25T13:31:30;2.60;;;1.83;;
7707;SDS011;3896;48.758;8.888;2024-03-25T13:33:55;1.30;;;1.20;;
7707;SDS011;3896;48.758;8.888;2024-03-25T13:36:21;1.80;;;1.70;;
7707;SDS011;3896;48.758;8.888;2024-03-25T13:38:46;1.63;;;1.50;;
7707;SDS011;3896;48.758;8.888;2024-03-25T13:41:12;1.57;;;1.40;;
7707;SDS011;3896;48.758;8.888;2024-03-25T13:43:43;1.77;;;1.60;;
7707;SDS011;3896;48.758;8.888;2024-03-25T13:46:09;3.50;;;1.57;;
7707;SDS011;3896;48.758;8.888;2024-03-25T13:48:37;1.47;;;1.13;;
7707;SDS011;3896;48.758;8.888;2024-03-25T13:51:03;1.70;;;1.60;;
7707;SDS011;3896;48.758;8.888;2024-03-25T13:53:29;2.10;;;1.40;;
7707;SDS011;3896;48.758;8.888;2024-03-25T13:55:54;1.50;;;1.30;;
7707;SDS011;3896;48.758;8.888;2024-03-25T13:58:20;2.00;;;1.50;;
7707;SDS011;3896;48.758;8.888;2024-03-25T14:00:45;1.20;;;1.20;;
7707;SDS011;3896;48.758;8.888;2024-03-25T14:03:11;0.97;;;0.97;;
7707;SDS011;3896;48.758;8.888;2024-03-25T14:05:36;1.27;;;1.10;;
7707;SDS011;3896;48.758;8.888;2024-03-25T14:08:02;0.77;;;0.77;;
7707;SDS011;3896;48.758;8.888;2024-03-25T14:10:28;2.00;;;1.27;;
7707;SDS011;3896;48.758;8.888;2024-03-25T14:12:55;2.10;;;0.90;;
7707;SDS011;3896;48.758;8.888;2024-03-25T14:15:20;1.50;;;1.00;;
7707;SDS011;3896;48.758;8.888;2024-03-25T14:17:46;1.27;;;1.17;;
7707;SDS011;3896;48.758;8.888;2024-03-25T14:20:11;2.00;;;0.90;;
7707;SDS011;3896;48.758;8.888;2024-03-25T14:22:37;3.53;;;1.20;;
7707;SDS011;3896;48.758;8.888;2024-03-25T14:25:04;1.60;;;1.20;;
7707;SDS011;3896;48.758;8.888;2024-03-25T14:27:30;1.67;;;1.10;;
7707;SDS011;3896;48.758;8.888;2024-03-25T14:29:56;1.73;;;1.63;;
7707;SDS011;3896;48.758;8.888;2024-03-25T14:32:22;2.47;;;1.40;;
7707;SDS011;3896;48.758;8.888;2024-03-25T14:34:48;1.87;;;1.50;;
7707;SDS011;3896;48.758;8.888;2024-03-25T14:37:14;1.63;;;1.30;;
7707;SDS011;3896;48.758;8.888;2024-03-25T14:39:39;1.53;;;1.20;;
7707;SDS011;3896;48.758;8.888;2024-03-25T14:42:07;2.40;;;1.93;;
7707;SDS011;3896;48.758;8.888;2024-03-25T14:44:35;2.93;;;1.63;;
7707;SDS011;3896;48.758;8.888;2024-03-25T14:47:01;1.23;;;1.20;;
7707;SDS011;3896;48.758;8.888;2024-03-25T14:49:27;2.47;;;1.40;;
7707;SDS011;3896;48.758;8.888;2024-03-25T14:51:52;2.13;;;1.57;;
7707;SDS011;3896;48.758;8.888;2024-03-25T14:54:18;2.00;;;1.30;;
7707;SDS011;3896;48.758;8.888;2024-03-25T14:56:44;1.80;;;1.40;;
7707;SDS011;3896;48.758;8.888;2024-03-25T14:59:13;2.10;;;1.20;;
7707;SDS011;3896;48.758;8.888;2024-03-25T15:01:39;1.97;;;1.50;;
7707;SDS011;3896;48.758;8.888;2024-03-25T15:04:05;1.30;;;1.20;;
7707;SDS011;3896;48.758;8.888;2024-03-25T15:06:31;3.33;;;1.60;;
7707;SDS011;3896;48.758;8.888;2024-03-25T15:08:57;1.47;;;1.33;;
7707;SDS011;3896;48.758;8.888;2024-03-25T15:11:23;1.60;;;1.30;;
7707;SDS011;3896;48.758;8.888;2024-03-25T15:13:52;2.20;;;1.50;;
7707;SDS011;3896;48.758;8.888;2024-03-25T15:16:20;1.30;;;1.17;;
7707;SDS011;3896;48.758;8.888;2024-03-25T15:18:46;1.47;;;1.20;;
7707;SDS011;3896;48.758;8.888;2024-03-25T15:21:11;1.23;;;1.13;;
7707;SDS011;3896;48.758;8.888;2024-03-25T15:23:37;2.40;;;1.37;;
7707;SDS011;3896;48.758;8.888;2024-03-25T15:26:03;2.10;;;1.63;;
7707;SDS011;3896;48.758;8.888;2024-03-25T15:28:29;2.20;;;1.73;;